sensor_id;sensor_type;location;lat;lon;timestamp;temperature;humidity
5960;DHT22;3006;50.956;7.002;2024-02-28T00:01:33;3.90;95.70
5960;DHT22;3006;50.956;7.002;2024-02-28T00:04:01;3.80;95.90
5960;DHT22;3006;50.956;7.002;2024-02-28T00:06:29;3.90;95.70
5960;DHT22;3006;50.956;7.002;2024-02-28T00:08:57;3.90;95.50
5960;DHT22;3006;50.956;7.002;2024-02-28T00:11:25;3.70;95.80
5960;DHT22;3006;50.956;7.002;2024-02-28T00:13:55;3.80;95.80
5960;DHT22;3006;50.956;7.002;2024-02-28T00:16:23;3.70;96.10
5960;DHT22;3006;50.956;7.002;2024-02-28T00:18:51;3.70;96.20
5960;DHT22;3006;50.956;7.002;2024-02-28T00:21:19;3.80;96.20
5960;DHT22;3006;50.956;7.002;2024-02-28T00:23:48;3.90;95.60
5960;DHT22;3006;50.956;7.002;2024-02-28T00:26:16;4.00;95.40
5960;DHT22;3006;50.956;7.002;2024-02-28T00:28:44;4.00;95.50
5960;DHT22;3006;50.956;7.002;2024-02-28T00:31:13;4.00;95.30
5960;DHT22;3006;50.956;7.002;2024-02-28T00:33:41;4.00;95.60
5960;DHT22;3006;50.956;7.002;2024-02-28T00:36:10;4.00;95.70
5960;DHT22;3006;50.956;7.002;2024-02-28T00:38:38;3.90;96.20
5960;DHT22;3006;50.956;7.002;2024-02-28T00:41:06;3.90;95.80
5960;DHT22;3006;50.956;7.002;2024-02-28T00:43:34;3.90;96.30
5960;DHT22;3006;50.956;7.002;2024-02-28T00:46:03;3.90;96.00
5960;DHT22;3006;50.956;7.002;2024-02-28T00:48:32;4.00;95.90
5960;DHT22;3006;50.956;7.002;2024-02-28T00:51:00;4.00;95.40
5960;DHT22;3006;50.956;7.002;2024-02-28T00:53:28;3.90;95.90
5960;DHT22;3006;50.956;7.002;2024-02-28T00:55:57;4.10;95.50
5960;DHT22;3006;50.956;7.002;2024-02-28T00:58:25;3.90;95.60
5960;DHT22;3006;50.956;7.002;2024-02-28T01:00:54;3.90;95.60
5960;DHT22;3006;50.956;7.002;2024-02-28T01:03:23;3.90;95.70
5960;DHT22;3006;50.956;7.002;2024-02-28T01:05:52;3.90;95.60
5960;DHT22;3006;50.956;7.002;2024-02-28T01:08:20;4.00;95.40
5960;DHT22;3006;50.956;7.002;2024-02-28T01:10:48;4.00;94.70
5960;DHT22;3006;50.956;7.002;2024-02-28T01:13:17;3.90;95.40
5960;DHT22;3006;50.956;7.002;2024-02-28T01:15:45;4.10;95.10
5960;DHT22;3006;50.956;7.002;2024-02-28T01:18:14;4.00;95.10
5960;DHT22;3006;50.956;7.002;2024-02-28T01:20:42;4.10;94.90
5960;DHT22;3006;50.956;7.002;2024-02-28T01:23:11;4.10;95.20
5960;DHT22;3006;50.956;7.002;2024-02-28T01:25:39;4.10;94.80
5960;DHT22;3006;50.956;7.002;2024-02-28T01:28:07;4.10;94.70
5960;DHT22;3006;50.956;7.002;2024-02-28T01:30:36;4.10;94.40
5960;DHT22;3006;50.956;7.002;2024-02-28T01:33:04;4.10;94.60
5960;DHT22;3006;50.956;7.002;2024-02-28T01:35:32;4.20;94.60
5960;DHT22;3006;50.956;7.002;2024-02-28T01:38:01;4.20;94.50
5960;DHT22;3006;50.956;7.002;2024-02-28T01:40:30;4.20;94.70
5960;DHT22;3006;50.956;7.002;2024-02-28T01:43:02;4.30;94.10
5960;DHT22;3006;50.956;7.002;2024-02-28T01:45:31;4.20;94.30
5960;DHT22;3006;50.956;7.002;2024-02-28T01:48:00;4.20;94.80
5960;DHT22;3006;50.956;7.002;2024-02-28T01:50:28;4.20;94.60
5960;DHT22;3006;50.956;7.002;2024-02-28T01:52:56;4.30;94.90
5960;DHT22;3006;50.956;7.002;2024-02-28T01:55:25;4.30;94.60
5960;DHT22;3006;50.956;7.002;2024-02-28T01:57:55;4.20;94.80
5960;DHT22;3006;50.956;7.002;2024-02-28T02:00:24;4.20;95.10
5960;DHT22;3006;50.956;7.002;2024-02-28T02:02:53;4.30;95.00
5960;DHT22;3006;50.956;7.002;2024-02-28T02:05:21;4.40;94.50
5960;DHT22;3006;50.956;7.002;2024-02-28T02:07:50;4.50;94.10
5960;DHT22;3006;50.956;7.002;2024-02-28T02:10:18;4.50;94.20
5960;DHT22;3006;50.956;7.002;2024-02-28T02:12:46;4.50;94.20
5960;DHT22;3006;50.956;7.002;2024-02-28T02:15:16;4.30;94.80
5960;DHT22;3006;50.956;7.002;2024-02-28T02:17:44;4.50;94.60
5960;DHT22;3006;50.956;7.002;2024-02-28T02:20:14;4.40;94.60
5960;DHT22;3006;50.956;7.002;2024-02-28T02:22:44;4.40;94.60
5960;DHT22;3006;50.956;7.002;2024-02-28T02:25:12;4.50;94.40
5960;DHT22;3006;50.956;7.002;2024-02-28T02:27:41;4.50;94.10
5960;DHT22;3006;50.956;7.002;2024-02-28T02:30:10;4.50;93.90
5960;DHT22;3006;50.956;7.002;2024-02-28T02:32:39;4.50;94.00
5960;DHT22;3006;50.956;7.002;2024-02-28T02:35:07;4.50;94.60
5960;DHT22;3006;50.956;7.002;2024-02-28T02:37:35;4.50;94.80
5960;DHT22;3006;50.956;7.002;2024-02-28T02:40:06;4.50;94.90
5960;DHT22;3006;50.956;7.002;2024-02-28T02:42:34;4.50;95.10
5960;DHT22;3006;50.956;7.002;2024-02-28T02:45:03;4.50;94.80
5960;DHT22;3006;50.956;7.002;2024-02-28T02:47:31;4.50;94.60
5960;DHT22;3006;50.956;7.002;2024-02-28T02:49:59;4.50;94.70
5960;DHT22;3006;50.956;7.002;2024-02-28T02:52:27;4.50;94.80
5960;DHT22;3006;50.956;7.002;2024-02-28T02:54:56;4.60;94.60
5960;DHT22;3006;50.956;7.002;2024-02-28T02:57:25;4.70;94.50
5960;DHT22;3006;50.956;7.002;2024-02-28T02:59:54;4.70;94.50
5960;DHT22;3006;50.956;7.002;2024-02-28T03:02:22;4.70;94.40
5960;DHT22;3006;50.956;7.002;2024-02-28T03:04:50;4.70;94.20
5960;DHT22;3006;50.956;7.002;2024-02-28T03:07:18;4.70;93.90
5960;DHT22;3006;50.956;7.002;2024-02-28T03:09:46;4.80;93.30
5960;DHT22;3006;50.956;7.002;2024-02-28T03:12:14;4.70;93.70
5960;DHT22;3006;50.956;7.002;2024-02-28T03:14:44;4.70;93.70
5960;DHT22;3006;50.956;7.002;2024-02-28T03:17:12;4.70;93.60
5960;DHT22;3006;50.956;7.002;2024-02-28T03:19:42;4.70;93.40
5960;DHT22;3006;50.956;7.002;2024-02-28T03:22:10;4.70;93.70
5960;DHT22;3006;50.956;7.002;2024-02-28T03:24:38;4.50;95.30
5960;DHT22;3006;50.956;7.002;2024-02-28T03:27:06;4.60;94.80
5960;DHT22;3006;50.956;7.002;2024-02-28T03:29:35;4.70;94.40
5960;DHT22;3006;50.956;7.002;2024-02-28T03:32:06;4.60;94.40
5960;DHT22;3006;50.956;7.002;2024-02-28T03:34:34;4.60;94.60
5960;DHT22;3006;50.956;7.002;2024-02-28T03:37:02;4.60;94.90
5960;DHT22;3006;50.956;7.002;2024-02-28T03:39:30;4.70;94.50
5960;DHT22;3006;50.956;7.002;2024-02-28T03:41:58;4.60;94.40
5960;DHT22;3006;50.956;7.002;2024-02-28T03:44:27;4.50;94.30
5960;DHT22;3006;50.956;7.002;2024-02-28T03:46:55;4.50;94.80
5960;DHT22;3006;50.956;7.002;2024-02-28T03:49:24;4.50;94.50
5960;DHT22;3006;50.956;7.002;2024-02-28T03:51:52;4.50;94.40
5960;DHT22;3006;50.956;7.002;2024-02-28T03:54:21;4.40;95.10
5960;DHT22;3006;50.956;7.002;2024-02-28T03:56:49;4.50;94.60
5960;DHT22;3006;50.956;7.002;2024-02-28T03:59:17;4.60;94.10
5960;DHT22;3006;50.956;7.002;2024-02-28T04:01:45;4.60;93.90
5960;DHT22;3006;50.956;7.002;2024-02-28T04:04:13;4.70;93.20
5960;DHT22;3006;50.956;7.002;2024-02-28T04:06:43;4.70;92.90
5960;DHT22;3006;50.956;7.002;2024-02-28T04:09:12;4.50;93.60
5960;DHT22;3006;50.956;7.002;2024-02-28T04:11:40;4.70;93.30
5960;DHT22;3006;50.956;7.002;2024-02-28T04:14:09;4.70;93.00
5960;DHT22;3006;50.956;7.002;2024-02-28T04:16:41;4.70;92.80
5960;DHT22;3006;50.956;7.002;2024-02-28T04:19:10;4.70;92.90
5960;DHT22;3006;50.956;7.002;2024-02-28T04:21:39;4.50;93.60
5960;DHT22;3006;50.956;7.002;2024-02-28T04:24:08;4.50;93.50
5960;DHT22;3006;50.956;7.002;2024-02-28T04:26:39;4.50;93.50
5960;DHT22;3006;50.956;7.002;2024-02-28T04:29:07;4.40;93.90
5960;DHT22;3006;50.956;7.002;2024-02-28T04:31:40;4.30;94.30
5960;DHT22;3006;50.956;7.002;2024-02-28T04:34:09;4.40;93.90
5960;DHT22;3006;50.956;7.002;2024-02-28T04:36:37;4.50;93.40
5960;DHT22;3006;50.956;7.002;2024-02-28T04:39:05;4.50;93.00
5960;DHT22;3006;50.956;7.002;2024-02-28T04:41:35;4.60;93.00
5960;DHT22;3006;50.956;7.002;2024-02-28T04:44:04;4.50;93.30
5960;DHT22;3006;50.956;7.002;2024-02-28T04:46:33;4.60;93.30
5960;DHT22;3006;50.956;7.002;2024-02-28T04:49:01;4.70;93.00
5960;DHT22;3006;50.956;7.002;2024-02-28T04:51:30;4.50;93.30
5960;DHT22;3006;50.956;7.002;2024-02-28T04:53:58;4.40;93.90
5960;DHT22;3006;50.956;7.002;2024-02-28T04:56:26;4.50;94.00
5960;DHT22;3006;50.956;7.002;2024-02-28T04:58:55;4.50;93.60
5960;DHT22;3006;50.956;7.002;2024-02-28T05:01:24;4.60;93.30
5960;DHT22;3006;50.956;7.002;2024-02-28T05:03:53;4.60;93.30
5960;DHT22;3006;50.956;7.002;2024-02-28T05:06:21;4.70;93.20
5960;DHT22;3006;50.956;7.002;2024-02-28T05:08:49;4.70;92.90
5960;DHT22;3006;50.956;7.002;2024-02-28T05:11:18;4.60;92.70
5960;DHT22;3006;50.956;7.002;2024-02-28T05:13:46;4.50;93.30
5960;DHT22;3006;50.956;7.002;2024-02-28T05:16:16;4.50;93.60
5960;DHT22;3006;50.956;7.002;2024-02-28T05:18:44;4.60;93.30
5960;DHT22;3006;50.956;7.002;2024-02-28T05:21:12;4.60;93.00
5960;DHT22;3006;50.956;7.002;2024-02-28T05:23:41;4.50;93.00
5960;DHT22;3006;50.956;7.002;2024-02-28T05:26:09;4.50;93.50
5960;DHT22;3006;50.956;7.002;2024-02-28T05:28:37;4.40;94.70
5960;DHT22;3006;50.956;7.002;2024-02-28T05:31:22;4.40;94.70
5960;DHT22;3006;50.956;7.002;2024-02-28T05:33:51;4.50;93.90
5960;DHT22;3006;50.956;7.002;2024-02-28T05:36:22;4.70;93.10
5960;DHT22;3006;50.956;7.002;2024-02-28T05:38:50;4.70;92.50
5960;DHT22;3006;50.956;7.002;2024-02-28T05:41:19;4.70;92.30
5960;DHT22;3006;50.956;7.002;2024-02-28T05:43:47;4.70;92.30
5960;DHT22;3006;50.956;7.002;2024-02-28T05:46:16;4.60;92.50
5960;DHT22;3006;50.956;7.002;2024-02-28T05:48:46;4.60;92.60
5960;DHT22;3006;50.956;7.002;2024-02-28T05:51:15;4.70;92.30
5960;DHT22;3006;50.956;7.002;2024-02-28T05:53:43;4.60;92.10
5960;DHT22;3006;50.956;7.002;2024-02-28T05:56:12;4.70;91.90
5960;DHT22;3006;50.956;7.002;2024-02-28T05:58:42;4.70;91.50
5960;DHT22;3006;50.956;7.002;2024-02-28T06:01:11;4.60;91.80
5960;DHT22;3006;50.956;7.002;2024-02-28T06:03:39;4.60;91.80
5960;DHT22;3006;50.956;7.002;2024-02-28T06:06:09;4.60;91.90
5960;DHT22;3006;50.956;7.002;2024-02-28T06:08:38;4.50;92.40
5960;DHT22;3006;50.956;7.002;2024-02-28T06:11:07;4.50;92.70
5960;DHT22;3006;50.956;7.002;2024-02-28T06:13:39;4.50;92.70
5960;DHT22;3006;50.956;7.002;2024-02-28T06:16:07;4.50;92.60
5960;DHT22;3006;50.956;7.002;2024-02-28T06:18:41;4.50;92.50
5960;DHT22;3006;50.956;7.002;2024-02-28T06:21:10;4.40;93.10
5960;DHT22;3006;50.956;7.002;2024-02-28T06:23:38;4.50;93.00
5960;DHT22;3006;50.956;7.002;2024-02-28T06:26:06;4.60;93.10
5960;DHT22;3006;50.956;7.002;2024-02-28T06:28:41;4.60;92.70
5960;DHT22;3006;50.956;7.002;2024-02-28T06:31:13;4.70;92.70
5960;DHT22;3006;50.956;7.002;2024-02-28T06:33:42;4.70;92.90
5960;DHT22;3006;50.956;7.002;2024-02-28T06:36:11;4.70;93.00
5960;DHT22;3006;50.956;7.002;2024-02-28T06:38:39;4.70;92.90
5960;DHT22;3006;50.956;7.002;2024-02-28T06:41:08;4.70;92.70
5960;DHT22;3006;50.956;7.002;2024-02-28T06:43:36;4.60;93.20
5960;DHT22;3006;50.956;7.002;2024-02-28T06:46:04;4.50;93.70
5960;DHT22;3006;50.956;7.002;2024-02-28T06:48:32;4.70;93.70
5960;DHT22;3006;50.956;7.002;2024-02-28T06:51:01;4.80;93.10
5960;DHT22;3006;50.956;7.002;2024-02-28T06:53:31;4.80;92.70
5960;DHT22;3006;50.956;7.002;2024-02-28T06:56:00;4.80;93.30
5960;DHT22;3006;50.956;7.002;2024-02-28T06:58:29;4.90;93.20
5960;DHT22;3006;50.956;7.002;2024-02-28T07:00:57;4.90;93.20
5960;DHT22;3006;50.956;7.002;2024-02-28T07:03:28;4.90;92.90
5960;DHT22;3006;50.956;7.002;2024-02-28T07:05:56;4.90;93.10
5960;DHT22;3006;50.956;7.002;2024-02-28T07:08:24;5.00;93.00
5960;DHT22;3006;50.956;7.002;2024-02-28T07:10:54;5.00;93.30
5960;DHT22;3006;50.956;7.002;2024-02-28T07:13:22;4.80;94.20
5960;DHT22;3006;50.956;7.002;2024-02-28T07:15:50;4.90;95.20
5960;DHT22;3006;50.956;7.002;2024-02-28T07:18:21;5.10;95.30
5960;DHT22;3006;50.956;7.002;2024-02-28T07:20:52;5.30;93.70
5960;DHT22;3006;50.956;7.002;2024-02-28T07:23:20;5.40;93.70
5960;DHT22;3006;50.956;7.002;2024-02-28T07:25:48;5.30;93.40
5960;DHT22;3006;50.956;7.002;2024-02-28T07:28:17;5.30;94.10
5960;DHT22;3006;50.956;7.002;2024-02-28T07:30:45;5.40;92.90
5960;DHT22;3006;50.956;7.002;2024-02-28T07:33:15;5.30;93.30
5960;DHT22;3006;50.956;7.002;2024-02-28T07:35:46;5.30;92.80
5960;DHT22;3006;50.956;7.002;2024-02-28T07:38:15;5.30;92.80
5960;DHT22;3006;50.956;7.002;2024-02-28T07:40:44;5.30;92.60
5960;DHT22;3006;50.956;7.002;2024-02-28T07:43:12;5.30;92.70
5960;DHT22;3006;50.956;7.002;2024-02-28T07:45:42;5.10;92.80
5960;DHT22;3006;50.956;7.002;2024-02-28T07:48:10;5.10;93.30
5960;DHT22;3006;50.956;7.002;2024-02-28T07:50:39;5.20;92.50
5960;DHT22;3006;50.956;7.002;2024-02-28T07:53:08;5.20;92.40
5960;DHT22;3006;50.956;7.002;2024-02-28T07:55:37;5.20;92.50
5960;DHT22;3006;50.956;7.002;2024-02-28T07:58:05;5.10;93.00
5960;DHT22;3006;50.956;7.002;2024-02-28T08:00:34;5.10;93.40
5960;DHT22;3006;50.956;7.002;2024-02-28T08:03:04;5.20;93.60
5960;DHT22;3006;50.956;7.002;2024-02-28T08:05:32;5.20;93.30
5960;DHT22;3006;50.956;7.002;2024-02-28T08:08:06;5.30;93.20
5960;DHT22;3006;50.956;7.002;2024-02-28T08:10:34;5.20;92.60
5960;DHT22;3006;50.956;7.002;2024-02-28T08:13:03;5.00;93.70
5960;DHT22;3006;50.956;7.002;2024-02-28T08:15:31;5.10;93.80
5960;DHT22;3006;50.956;7.002;2024-02-28T08:17:59;5.10;93.80
5960;DHT22;3006;50.956;7.002;2024-02-28T08:20:29;5.30;93.30
5960;DHT22;3006;50.956;7.002;2024-02-28T08:22:57;5.30;92.60
5960;DHT22;3006;50.956;7.002;2024-02-28T08:25:27;5.30;93.20
5960;DHT22;3006;50.956;7.002;2024-02-28T08:27:55;5.30;93.20
5960;DHT22;3006;50.956;7.002;2024-02-28T08:30:23;5.30;92.90
5960;DHT22;3006;50.956;7.002;2024-02-28T08:32:52;5.30;92.60
5960;DHT22;3006;50.956;7.002;2024-02-28T08:35:20;5.30;92.20
5960;DHT22;3006;50.956;7.002;2024-02-28T08:37:51;5.30;91.70
5960;DHT22;3006;50.956;7.002;2024-02-28T08:40:19;5.30;92.10
5960;DHT22;3006;50.956;7.002;2024-02-28T08:42:48;5.50;91.50
5960;DHT22;3006;50.956;7.002;2024-02-28T08:45:20;5.60;90.90
5960;DHT22;3006;50.956;7.002;2024-02-28T08:47:48;5.40;91.30
5960;DHT22;3006;50.956;7.002;2024-02-28T08:50:17;5.50;91.00
5960;DHT22;3006;50.956;7.002;2024-02-28T08:52:45;5.50;91.30
5960;DHT22;3006;50.956;7.002;2024-02-28T08:55:15;5.50;90.90
5960;DHT22;3006;50.956;7.002;2024-02-28T08:57:45;5.60;90.80
5960;DHT22;3006;50.956;7.002;2024-02-28T09:00:14;5.60;90.80
5960;DHT22;3006;50.956;7.002;2024-02-28T09:02:43;5.50;91.90
5960;DHT22;3006;50.956;7.002;2024-02-28T09:05:11;5.60;91.30
5960;DHT22;3006;50.956;7.002;2024-02-28T09:07:39;5.70;90.80
5960;DHT22;3006;50.956;7.002;2024-02-28T09:10:08;5.60;90.90
5960;DHT22;3006;50.956;7.002;2024-02-28T09:12:39;5.60;91.00
5960;DHT22;3006;50.956;7.002;2024-02-28T09:15:08;5.70;90.70
5960;DHT22;3006;50.956;7.002;2024-02-28T09:17:36;5.70;90.10
5960;DHT22;3006;50.956;7.002;2024-02-28T09:20:05;5.80;90.00
5960;DHT22;3006;50.956;7.002;2024-02-28T09:22:34;5.90;89.70
5960;DHT22;3006;50.956;7.002;2024-02-28T09:25:03;6.00;89.50
5960;DHT22;3006;50.956;7.002;2024-02-28T09:27:31;6.00;89.50
5960;DHT22;3006;50.956;7.002;2024-02-28T09:30:01;6.00;88.60
5960;DHT22;3006;50.956;7.002;2024-02-28T09:32:29;5.90;88.60
5960;DHT22;3006;50.956;7.002;2024-02-28T09:34:57;6.00;89.20
5960;DHT22;3006;50.956;7.002;2024-02-28T09:37:25;6.20;88.30
5960;DHT22;3006;50.956;7.002;2024-02-28T09:39:55;6.20;87.40
5960;DHT22;3006;50.956;7.002;2024-02-28T09:42:23;6.10;88.00
5960;DHT22;3006;50.956;7.002;2024-02-28T09:44:51;6.20;87.40
5960;DHT22;3006;50.956;7.002;2024-02-28T09:47:21;6.10;87.60
5960;DHT22;3006;50.956;7.002;2024-02-28T09:49:50;6.00;88.20
5960;DHT22;3006;50.956;7.002;2024-02-28T09:52:20;6.10;88.30
5960;DHT22;3006;50.956;7.002;2024-02-28T09:54:48;6.20;87.80
5960;DHT22;3006;50.956;7.002;2024-02-28T09:57:17;6.20;87.90
5960;DHT22;3006;50.956;7.002;2024-02-28T09:59:46;6.40;87.20
5960;DHT22;3006;50.956;7.002;2024-02-28T10:02:23;6.20;86.80
5960;DHT22;3006;50.956;7.002;2024-02-28T10:04:52;6.20;87.20
5960;DHT22;3006;50.956;7.002;2024-02-28T10:07:21;6.40;86.40
5960;DHT22;3006;50.956;7.002;2024-02-28T10:09:49;6.50;85.70
5960;DHT22;3006;50.956;7.002;2024-02-28T10:12:17;6.30;86.20
5960;DHT22;3006;50.956;7.002;2024-02-28T10:14:49;6.20;86.80
5960;DHT22;3006;50.956;7.002;2024-02-28T10:17:18;6.30;87.50
5960;DHT22;3006;50.956;7.002;2024-02-28T10:19:47;6.60;86.60
5960;DHT22;3006;50.956;7.002;2024-02-28T10:22:15;6.70;85.00
5960;DHT22;3006;50.956;7.002;2024-02-28T10:24:44;6.90;84.20
5960;DHT22;3006;50.956;7.002;2024-02-28T10:27:15;6.80;84.00
5960;DHT22;3006;50.956;7.002;2024-02-28T10:29:45;6.80;84.50
5960;DHT22;3006;50.956;7.002;2024-02-28T10:32:13;6.70;84.50
5960;DHT22;3006;50.956;7.002;2024-02-28T10:34:42;6.40;85.20
5960;DHT22;3006;50.956;7.002;2024-02-28T10:37:12;6.60;85.70
5960;DHT22;3006;50.956;7.002;2024-02-28T10:39:41;6.60;85.20
5960;DHT22;3006;50.956;7.002;2024-02-28T10:42:11;6.70;85.40
5960;DHT22;3006;50.956;7.002;2024-02-28T10:44:41;6.80;84.60
5960;DHT22;3006;50.956;7.002;2024-02-28T10:47:09;6.80;84.30
5960;DHT22;3006;50.956;7.002;2024-02-28T10:49:39;6.80;84.50
5960;DHT22;3006;50.956;7.002;2024-02-28T10:52:12;6.70;85.00
5960;DHT22;3006;50.956;7.002;2024-02-28T10:54:42;6.90;84.40
5960;DHT22;3006;50.956;7.002;2024-02-28T10:57:12;6.90;84.00
5960;DHT22;3006;50.956;7.002;2024-02-28T10:59:43;6.90;84.50
5960;DHT22;3006;50.956;7.002;2024-02-28T11:02:13;7.00;83.60
5960;DHT22;3006;50.956;7.002;2024-02-28T11:04:41;7.20;83.50
5960;DHT22;3006;50.956;7.002;2024-02-28T11:07:18;7.40;82.20
5960;DHT22;3006;50.956;7.002;2024-02-28T11:09:47;7.20;82.10
5960;DHT22;3006;50.956;7.002;2024-02-28T11:12:25;7.10;82.60
5960;DHT22;3006;50.956;7.002;2024-02-28T11:14:58;7.10;82.70
5960;DHT22;3006;50.956;7.002;2024-02-28T11:17:26;7.20;82.50
5960;DHT22;3006;50.956;7.002;2024-02-28T11:19:55;7.30;82.60
5960;DHT22;3006;50.956;7.002;2024-02-28T11:22:27;7.40;82.10
5960;DHT22;3006;50.956;7.002;2024-02-28T11:24:56;7.40;82.00
5960;DHT22;3006;50.956;7.002;2024-02-28T11:27:24;7.50;82.10
5960;DHT22;3006;50.956;7.002;2024-02-28T11:29:52;7.40;81.80
5960;DHT22;3006;50.956;7.002;2024-02-28T11:32:20;7.40;82.00
5960;DHT22;3006;50.956;7.002;2024-02-28T11:34:48;7.50;81.60
5960;DHT22;3006;50.956;7.002;2024-02-28T11:37:18;7.50;81.00
5960;DHT22;3006;50.956;7.002;2024-02-28T11:39:48;7.50;81.80
5960;DHT22;3006;50.956;7.002;2024-02-28T11:42:16;7.50;80.70
5960;DHT22;3006;50.956;7.002;2024-02-28T11:44:53;7.50;80.90
5960;DHT22;3006;50.956;7.002;2024-02-28T11:47:28;7.60;79.80
5960;DHT22;3006;50.956;7.002;2024-02-28T11:49:58;7.50;80.10
5960;DHT22;3006;50.956;7.002;2024-02-28T11:52:26;7.50;80.50
5960;DHT22;3006;50.956;7.002;2024-02-28T11:54:56;7.70;80.20
5960;DHT22;3006;50.956;7.002;2024-02-28T11:57:25;7.80;79.50
5960;DHT22;3006;50.956;7.002;2024-02-28T11:59:53;7.80;79.60
5960;DHT22;3006;50.956;7.002;2024-02-28T12:02:23;7.80;79.20
5960;DHT22;3006;50.956;7.002;2024-02-28T12:04:52;7.80;78.70
5960;DHT22;3006;50.956;7.002;2024-02-28T12:07:22;8.00;78.80
5960;DHT22;3006;50.956;7.002;2024-02-28T12:09:50;8.20;77.20
5960;DHT22;3006;50.956;7.002;2024-02-28T12:12:19;8.30;76.40
5960;DHT22;3006;50.956;7.002;2024-02-28T12:14:49;8.40;75.90
5960;DHT22;3006;50.956;7.002;2024-02-28T12:17:17;8.50;75.60
5960;DHT22;3006;50.956;7.002;2024-02-28T12:19:45;8.50;74.80
5960;DHT22;3006;50.956;7.002;2024-02-28T12:22:14;8.40;74.00
5960;DHT22;3006;50.956;7.002;2024-02-28T12:24:42;8.40;74.60
5960;DHT22;3006;50.956;7.002;2024-02-28T12:27:10;8.40;74.70
5960;DHT22;3006;50.956;7.002;2024-02-28T12:29:40;8.60;74.20
5960;DHT22;3006;50.956;7.002;2024-02-28T12:32:08;8.80;72.90
5960;DHT22;3006;50.956;7.002;2024-02-28T12:34:37;8.90;71.30
5960;DHT22;3006;50.956;7.002;2024-02-28T12:37:05;8.80;70.90
5960;DHT22;3006;50.956;7.002;2024-02-28T12:39:36;8.60;70.30
5960;DHT22;3006;50.956;7.002;2024-02-28T12:42:04;8.60;69.40
5960;DHT22;3006;50.956;7.002;2024-02-28T12:44:34;8.60;69.10
5960;DHT22;3006;50.956;7.002;2024-02-28T12:47:04;8.90;69.40
5960;DHT22;3006;50.956;7.002;2024-02-28T12:49:33;9.10;73.30
5960;DHT22;3006;50.956;7.002;2024-02-28T12:52:01;9.00;71.40
5960;DHT22;3006;50.956;7.002;2024-02-28T12:54:29;8.90;70.60
5960;DHT22;3006;50.956;7.002;2024-02-28T12:56:58;9.00;69.20
5960;DHT22;3006;50.956;7.002;2024-02-28T12:59:26;9.00;68.50
5960;DHT22;3006;50.956;7.002;2024-02-28T13:01:54;9.00;69.30
5960;DHT22;3006;50.956;7.002;2024-02-28T13:04:24;9.30;68.70
5960;DHT22;3006;50.956;7.002;2024-02-28T13:06:52;9.40;67.20
5960;DHT22;3006;50.956;7.002;2024-02-28T13:09:20;9.40;67.90
5960;DHT22;3006;50.956;7.002;2024-02-28T13:11:50;9.50;67.00
5960;DHT22;3006;50.956;7.002;2024-02-28T13:14:19;9.40;67.10
5960;DHT22;3006;50.956;7.002;2024-02-28T13:16:47;9.50;66.50
5960;DHT22;3006;50.956;7.002;2024-02-28T13:19:17;9.50;66.40
5960;DHT22;3006;50.956;7.002;2024-02-28T13:21:46;9.60;65.90
5960;DHT22;3006;50.956;7.002;2024-02-28T13:24:14;9.80;66.00
5960;DHT22;3006;50.956;7.002;2024-02-28T13:26:44;9.90;64.60
5960;DHT22;3006;50.956;7.002;2024-02-28T13:29:12;9.80;64.00
5960;DHT22;3006;50.956;7.002;2024-02-28T13:31:40;10.00;64.70
5960;DHT22;3006;50.956;7.002;2024-02-28T13:34:08;10.20;64.80
5960;DHT22;3006;50.956;7.002;2024-02-28T13:36:36;10.20;64.40
5960;DHT22;3006;50.956;7.002;2024-02-28T13:39:11;10.20;64.50
5960;DHT22;3006;50.956;7.002;2024-02-28T13:41:39;10.30;62.80
5960;DHT22;3006;50.956;7.002;2024-02-28T13:44:07;10.20;61.70
5960;DHT22;3006;50.956;7.002;2024-02-28T13:46:36;10.20;63.00
5960;DHT22;3006;50.956;7.002;2024-02-28T13:49:06;10.00;61.30
5960;DHT22;3006;50.956;7.002;2024-02-28T13:51:34;10.00;60.80
5960;DHT22;3006;50.956;7.002;2024-02-28T13:54:05;10.20;60.30
5960;DHT22;3006;50.956;7.002;2024-02-28T13:56:35;10.30;61.20
5960;DHT22;3006;50.956;7.002;2024-02-28T13:59:04;10.50;59.60
5960;DHT22;3006;50.956;7.002;2024-02-28T14:01:33;10.40;59.60
5960;DHT22;3006;50.956;7.002;2024-02-28T14:04:01;10.40;58.80
5960;DHT22;3006;50.956;7.002;2024-02-28T14:06:30;10.40;58.70
5960;DHT22;3006;50.956;7.002;2024-02-28T14:08:58;10.30;58.00
5960;DHT22;3006;50.956;7.002;2024-02-28T14:11:26;10.30;58.60
5960;DHT22;3006;50.956;7.002;2024-02-28T14:13:56;10.20;58.70
5960;DHT22;3006;50.956;7.002;2024-02-28T14:16:25;10.40;59.10
5960;DHT22;3006;50.956;7.002;2024-02-28T14:18:53;10.40;58.10
5960;DHT22;3006;50.956;7.002;2024-02-28T14:21:21;10.40;58.60
5960;DHT22;3006;50.956;7.002;2024-02-28T14:23:51;10.50;58.50
5960;DHT22;3006;50.956;7.002;2024-02-28T14:26:19;10.70;58.30
5960;DHT22;3006;50.956;7.002;2024-02-28T14:28:50;10.70;57.20
5960;DHT22;3006;50.956;7.002;2024-02-28T14:31:20;10.40;57.50
5960;DHT22;3006;50.956;7.002;2024-02-28T14:33:48;10.40;58.10
5960;DHT22;3006;50.956;7.002;2024-02-28T14:36:16;10.60;58.00
5960;DHT22;3006;50.956;7.002;2024-02-28T14:38:44;10.70;58.10
5960;DHT22;3006;50.956;7.002;2024-02-28T14:41:12;10.80;55.80
5960;DHT22;3006;50.956;7.002;2024-02-28T14:43:41;10.70;55.80
5960;DHT22;3006;50.956;7.002;2024-02-28T14:46:09;10.60;54.70
5960;DHT22;3006;50.956;7.002;2024-02-28T14:48:40;10.40;55.50
5960;DHT22;3006;50.956;7.002;2024-02-28T14:51:08;10.40;56.00
5960;DHT22;3006;50.956;7.002;2024-02-28T14:53:37;10.40;56.50
5960;DHT22;3006;50.956;7.002;2024-02-28T14:56:05;10.40;55.70
5960;DHT22;3006;50.956;7.002;2024-02-28T14:58:34;10.40;56.20
5960;DHT22;3006;50.956;7.002;2024-02-28T15:01:04;10.40;58.90
5960;DHT22;3006;50.956;7.002;2024-02-28T15:03:32;10.30;59.50
5960;DHT22;3006;50.956;7.002;2024-02-28T15:06:04;10.20;60.20
5960;DHT22;3006;50.956;7.002;2024-02-28T15:08:32;10.20;60.20
5960;DHT22;3006;50.956;7.002;2024-02-28T15:11:00;10.10;60.20
5960;DHT22;3006;50.956;7.002;2024-02-28T15:13:29;10.20;59.20
5960;DHT22;3006;50.956;7.002;2024-02-28T15:15:57;10.10;59.40
5960;DHT22;3006;50.956;7.002;2024-02-28T15:18:25;10.00;59.10
5960;DHT22;3006;50.956;7.002;2024-02-28T15:20:54;10.10;59.30
5960;DHT22;3006;50.956;7.002;2024-02-28T15:23:28;10.00;59.70
5960;DHT22;3006;50.956;7.002;2024-02-28T15:25:58;10.00;58.80
5960;DHT22;3006;50.956;7.002;2024-02-28T15:28:26;10.10;60.10
5960;DHT22;3006;50.956;7.002;2024-02-28T15:30:54;10.10;60.00
5960;DHT22;3006;50.956;7.002;2024-02-28T15:33:23;10.10;60.20
5960;DHT22;3006;50.956;7.002;2024-02-28T15:35:52;10.10;59.70
5960;DHT22;3006;50.956;7.002;2024-02-28T15:38:20;10.20;60.60
5960;DHT22;3006;50.956;7.002;2024-02-28T15:40:49;10.20;59.70
5960;DHT22;3006;50.956;7.002;2024-02-28T15:43:17;10.10;60.30
5960;DHT22;3006;50.956;7.002;2024-02-28T15:45:45;10.10;60.90
5960;DHT22;3006;50.956;7.002;2024-02-28T15:48:16;10.10;61.20
5960;DHT22;3006;50.956;7.002;2024-02-28T15:50:45;10.10;61.40
5960;DHT22;3006;50.956;7.002;2024-02-28T15:53:15;10.20;61.50
5960;DHT22;3006;50.956;7.002;2024-02-28T15:55:43;10.20;62.30
5960;DHT22;3006;50.956;7.002;2024-02-28T15:58:12;10.20;62.10
5960;DHT22;3006;50.956;7.002;2024-02-28T16:00:40;10.10;62.10
5960;DHT22;3006;50.956;7.002;2024-02-28T16:03:09;10.10;61.60
5960;DHT22;3006;50.956;7.002;2024-02-28T16:05:37;10.00;62.50
5960;DHT22;3006;50.956;7.002;2024-02-28T16:08:05;10.00;62.50
5960;DHT22;3006;50.956;7.002;2024-02-28T16:10:33;10.00;63.20
5960;DHT22;3006;50.956;7.002;2024-02-28T16:13:02;9.80;64.20
5960;DHT22;3006;50.956;7.002;2024-02-28T16:15:32;9.80;63.60
5960;DHT22;3006;50.956;7.002;2024-02-28T16:18:02;9.80;63.70
5960;DHT22;3006;50.956;7.002;2024-02-28T16:20:31;9.80;64.10
5960;DHT22;3006;50.956;7.002;2024-02-28T16:22:59;9.80;64.20
5960;DHT22;3006;50.956;7.002;2024-02-28T16:25:28;9.70;64.90